New Clarkson, Texas
Current Conditions -  °F | °C
As of 9:15 PM on Wednesday 22 Oct 2014 (Local Time) from KT35 Reporting Station
Clear Clear  
Wind Chill: 69°   Ceiling: Unl
Heat Index: 69°   Visibility: 10mi
Dew Point: 61°   Wind: 0mph
Humidity: 74%   Direction: NA
Pressure: 30.09"   Gusts: NA
Location:  31.0981°N, 96.99°W
Report Text: KT35 230215Z AUTO 00000KT 10SM CLR 21/16 A3009 RMK AO2 T02080160
Loading
Personal Weather Stations






























Interactive Weather Map
Tropical Storm Tracking
New forecast layout! Learn more

10-Day Weather Forecast

Advertisements
Track Severe Weather on mobile